Terminal Aerodrome Forecast
Issued by NWS Sioux Falls, SD

Home | Current Version | Previous Version | Text Only | Print | Product List | Glossary Off
Versions: 1 2 3 4 5 6 7 8 9 10 11 12 13 14 15 16 17 18 19 20 21 22 23 24 25 26 27 28 29 30

000
FTUS43 KFSD 211911 AAB
TAFSUX
TAF AMD
KSUX 211911Z 2119/2218 28004KT P6SM OVC022
     FM212200 24004KT P6SM BKN030
     FM220000 15004KT P6SM SCT200
     FM220700 10004KT P6SM BKN045
     FM221500 14007KT P6SM SCT045=

USA.gov is the U.S. government's official web portal to all federal, state and local government web resources and services.